createdAt,value
2023-03-20T00:00:52.013Z,4.18
2023-03-20T00:03:19.215Z,3.90
2023-03-20T00:05:46.484Z,4.53
2023-03-20T00:08:14.018Z,4.60
2023-03-20T00:10:41.744Z,4.53
2023-03-20T00:13:09.759Z,4.97
2023-03-20T00:15:39.001Z,5.50
2023-03-20T00:18:07.698Z,4.63
2023-03-20T00:20:35.164Z,5.03
2023-03-20T00:23:04.059Z,4.93
2023-03-20T00:25:32.285Z,4.53
2023-03-20T00:27:59.466Z,5.65
2023-03-20T00:30:28.354Z,5.13
2023-03-20T00:32:57.119Z,5.03
2023-03-20T00:35:25.243Z,5.47
2023-03-20T00:37:52.904Z,4.88
2023-03-20T00:40:20.214Z,5.45
2023-03-20T00:42:48.042Z,5.05
2023-03-20T00:45:16.018Z,4.88
2023-03-20T00:47:43.223Z,5.40
2023-03-20T00:50:16.913Z,5.10
2023-03-20T00:52:44.465Z,5.20
2023-03-20T00:55:11.854Z,4.95
2023-03-20T00:57:39.908Z,5.40
2023-03-20T01:00:08.004Z,5.63
2023-03-20T01:02:35.340Z,6.03
2023-03-20T01:05:03.668Z,6.25
2023-03-20T01:07:32.188Z,5.30
2023-03-20T01:09:59.379Z,6.03
2023-03-20T01:12:26.578Z,6.28
2023-03-20T01:14:54.739Z,6.38
2023-03-20T01:17:22.696Z,6.35
2023-03-20T01:19:49.894Z,6.03
2023-03-20T01:22:17.823Z,6.45
2023-03-20T01:24:47.196Z,6.82
2023-03-20T01:27:14.633Z,6.85
2023-03-20T01:29:42.055Z,6.35
2023-03-20T01:32:10.228Z,6.25
2023-03-20T01:34:37.419Z,6.55
2023-03-20T01:37:04.879Z,6.40
2023-03-20T01:39:32.682Z,7.15
2023-03-20T01:42:01.305Z,6.60
2023-03-20T01:44:29.102Z,6.35
2023-03-20T01:46:56.319Z,6.28
2023-03-20T01:49:42.355Z,6.95
2023-03-20T01:52:09.557Z,7.40
2023-03-20T01:54:37.069Z,7.38
2023-03-20T01:57:06.611Z,7.05
2023-03-20T01:59:34.250Z,7.13
2023-03-20T02:02:01.528Z,7.03
2023-03-20T02:04:29.389Z,7.53
2023-03-20T02:06:56.653Z,6.60
2023-03-20T02:09:23.870Z,7.25
2023-03-20T02:11:51.063Z,6.90
2023-03-20T02:14:19.603Z,7.18
2023-03-20T02:16:46.851Z,7.30
2023-03-20T02:19:16.150Z,8.27
2023-03-20T02:21:47.814Z,7.13
2023-03-20T02:24:30.751Z,6.90
2023-03-20T02:27:03.400Z,7.35
2023-03-20T02:29:38.080Z,7.13
2023-03-20T02:32:24.236Z,7.95
2023-03-20T02:35:06.399Z,7.53
2023-03-20T02:37:40.480Z,7.10
2023-03-20T02:40:10.099Z,7.72
2023-03-20T02:42:39.648Z,7.13
2023-03-20T02:45:09.071Z,8.45
2023-03-20T02:47:38.139Z,9.27
2023-03-20T02:50:08.679Z,7.10
2023-03-20T02:52:37.016Z,8.27
2023-03-20T02:55:09.432Z,8.95
2023-03-20T02:57:38.646Z,9.15
2023-03-20T03:00:09.713Z,7.73
2023-03-20T03:02:37.153Z,8.02
2023-03-20T03:05:04.929Z,9.27
2023-03-20T03:07:33.617Z,7.88
2023-03-20T03:10:01.431Z,8.50
2023-03-20T03:12:30.578Z,7.57
2023-03-20T03:14:57.914Z,8.52
2023-03-20T03:17:25.511Z,8.10
2023-03-20T03:19:53.762Z,8.07
2023-03-20T03:22:21.100Z,8.15
2023-03-20T03:24:48.665Z,9.00
2023-03-20T03:27:17.446Z,7.90
2023-03-20T03:29:46.113Z,8.52
2023-03-20T03:32:20.788Z,8.38
2023-03-20T03:34:47.993Z,9.90
2023-03-20T03:37:16.283Z,9.27
2023-03-20T03:39:44.924Z,9.70
2023-03-20T03:42:13.722Z,9.80
2023-03-20T03:44:42.970Z,9.05
2023-03-20T03:47:12.035Z,8.50
2023-03-20T03:49:40.278Z,9.55
2023-03-20T03:52:07.669Z,9.25
2023-03-20T03:54:35.583Z,9.18
2023-03-20T03:57:02.759Z,8.07
2023-03-20T03:59:31.191Z,8.43
2023-03-20T04:01:58.390Z,8.63
2023-03-20T04:04:27.045Z,9.98
2023-03-20T04:06:54.304Z,8.43
2023-03-20T04:09:21.517Z,8.88
2023-03-20T04:11:49.590Z,8.20
2023-03-20T04:14:16.788Z,9.38
2023-03-20T04:16:43.970Z,8.65
2023-03-20T04:19:11.139Z,8.23
2023-03-20T04:21:39.638Z,9.80
2023-03-20T04:24:07.191Z,10.20
2023-03-20T04:26:34.372Z,8.20
2023-03-20T04:29:01.658Z,8.75
2023-03-20T04:31:29.638Z,9.18
2023-03-20T04:33:56.845Z,8.10
2023-03-20T04:36:24.135Z,8.18
2023-03-20T04:38:52.654Z,8.70
2023-03-20T04:41:21.208Z,8.50
2023-03-20T04:43:48.459Z,9.60
2023-03-20T04:46:15.901Z,8.55
2023-03-20T04:48:43.116Z,9.05
2023-03-20T04:51:10.330Z,9.23
2023-03-20T04:53:37.731Z,8.48
2023-03-20T04:56:06.801Z,9.00
2023-03-20T04:58:35.815Z,8.02
2023-03-20T05:01:03.005Z,10.00
2023-03-20T05:03:30.212Z,9.45
2023-03-20T05:05:57.407Z,9.07
2023-03-20T05:08:24.584Z,9.70
2023-03-20T05:10:52.041Z,9.40
2023-03-20T05:13:20.609Z,9.52
2023-03-20T05:15:47.801Z,10.70
2023-03-20T05:18:15.173Z,9.82
2023-03-20T05:20:42.581Z,9.85
2023-03-20T05:23:09.759Z,9.90
2023-03-20T05:25:37.189Z,10.10
2023-03-20T05:28:04.566Z,9.98
2023-03-20T05:30:33.087Z,10.40
2023-03-20T05:33:00.311Z,9.93
2023-03-20T05:35:27.522Z,10.40
2023-03-20T05:37:54.701Z,11.30
2023-03-20T05:40:24.123Z,10.85
2023-03-20T05:42:51.491Z,12.35
2023-03-20T05:45:18.676Z,10.55
2023-03-20T05:47:47.604Z,10.00
2023-03-20T05:50:14.810Z,10.63
2023-03-20T05:52:42.477Z,11.23
2023-03-20T05:55:09.818Z,11.00
2023-03-20T05:57:37.033Z,9.95
2023-03-20T06:00:05.433Z,9.18
2023-03-20T06:02:32.643Z,9.48
2023-03-20T06:05:01.174Z,9.80
2023-03-20T06:07:28.467Z,9.57
2023-03-20T06:09:55.688Z,9.73
2023-03-20T06:12:23.150Z,9.10
2023-03-20T06:14:50.328Z,9.50
2023-03-20T06:17:17.521Z,9.32
2023-03-20T06:19:44.698Z,9.75
2023-03-20T06:22:13.188Z,8.73
2023-03-20T06:24:41.091Z,10.98
2023-03-20T06:27:08.270Z,10.25
2023-03-20T06:29:35.488Z,11.15
2023-03-20T06:32:02.683Z,10.05
2023-03-20T06:34:30.133Z,10.07
2023-03-20T06:36:57.335Z,9.10
2023-03-20T06:39:25.909Z,16.17
2023-03-20T06:41:53.089Z,16.08
2023-03-20T06:44:20.256Z,15.15
2023-03-20T06:46:47.505Z,18.40
2023-03-20T06:49:14.790Z,15.18
2023-03-20T06:51:41.979Z,14.00
2023-03-20T06:54:09.151Z,17.70
2023-03-20T06:56:37.640Z,21.50
2023-03-20T06:59:04.840Z,19.17
2023-03-20T07:01:32.040Z,17.27
2023-03-20T07:03:59.244Z,16.65
2023-03-20T07:06:26.538Z,16.77
2023-03-20T07:08:53.725Z,15.82
2023-03-20T07:11:20.960Z,13.82
2023-03-20T07:13:49.987Z,14.95
2023-03-20T07:16:17.847Z,15.60
2023-03-20T07:18:45.074Z,15.25
2023-03-20T07:21:12.256Z,16.48
2023-03-20T07:23:39.434Z,17.38
2023-03-20T07:26:06.864Z,15.75
2023-03-20T07:28:34.070Z,16.48
2023-03-20T07:31:02.954Z,17.05
2023-03-20T07:33:30.146Z,16.25
2023-03-20T07:35:57.406Z,16.77
2023-03-20T07:38:24.652Z,17.20
2023-03-20T07:40:54.180Z,17.70
2023-03-20T07:43:22.095Z,17.25
2023-03-20T07:45:49.352Z,16.73
2023-03-20T07:48:17.929Z,15.60
2023-03-20T07:50:45.184Z,17.40
2023-03-20T07:53:12.373Z,15.73
2023-03-20T07:55:39.595Z,17.45
2023-03-20T07:58:08.376Z,16.50
2023-03-20T08:00:36.225Z,16.17
2023-03-20T08:03:03.531Z,15.85
2023-03-20T08:05:32.106Z,16.58
2023-03-20T08:07:59.648Z,17.13
2023-03-20T08:10:27.095Z,16.40
2023-03-20T08:12:54.293Z,16.55
2023-03-20T08:15:21.482Z,17.05
2023-03-20T08:17:48.720Z,16.35
2023-03-20T08:20:16.133Z,16.65
2023-03-20T08:22:44.638Z,16.90
2023-03-20T08:25:12.556Z,16.00
2023-03-20T08:27:39.762Z,16.05
2023-03-20T08:30:07.461Z,16.50
2023-03-20T08:32:34.707Z,15.63
2023-03-20T08:35:01.922Z,14.85
2023-03-20T08:37:29.195Z,14.25
2023-03-20T08:39:57.684Z,15.23
2023-03-20T08:42:24.968Z,15.15
2023-03-20T08:44:52.369Z,14.60
2023-03-20T08:47:19.591Z,13.52
2023-03-20T08:49:47.023Z,13.45
2023-03-20T08:52:14.223Z,12.48
2023-03-20T08:54:41.604Z,13.15
2023-03-20T08:57:10.122Z,12.73
2023-03-20T08:59:37.326Z,11.93
2023-03-20T09:02:04.558Z,12.07
2023-03-20T09:04:31.787Z,11.40
2023-03-20T09:07:01.104Z,11.38
2023-03-20T09:09:29.344Z,10.63
2023-03-20T09:11:56.858Z,10.48
2023-03-20T09:14:25.567Z,10.05
2023-03-20T09:16:52.786Z,10.25
2023-03-20T09:19:20.141Z,10.15
2023-03-20T09:21:47.428Z,14.07
2023-03-20T09:24:14.591Z,16.65
2023-03-20T09:26:42.287Z,14.70
2023-03-20T09:29:09.544Z,12.25
2023-03-20T09:31:38.107Z,12.10
2023-03-20T09:34:05.340Z,15.65
2023-03-20T09:36:32.552Z,14.27
2023-03-20T09:38:59.744Z,16.88
2023-03-20T09:41:28.344Z,20.55
2023-03-20T09:43:58.442Z,20.00
2023-03-20T09:46:30.482Z,16.60
2023-03-20T09:49:01.516Z,15.80
2023-03-20T09:51:31.314Z,16.38
2023-03-20T09:54:01.166Z,13.95
2023-03-20T09:56:28.638Z,14.88
2023-03-20T09:58:56.389Z,12.93
2023-03-20T10:01:23.720Z,13.23
2023-03-20T10:03:51.456Z,13.00
2023-03-20T10:06:20.119Z,13.18
2023-03-20T10:08:47.348Z,12.23
2023-03-20T10:11:22.842Z,10.10
2023-03-20T10:13:56.011Z,11.48
2023-03-20T10:16:25.911Z,11.50
2023-03-20T10:18:56.194Z,10.75
2023-03-20T10:21:25.490Z,9.93
2023-03-20T10:23:54.421Z,9.82
2023-03-20T10:26:22.354Z,9.60
2023-03-20T10:28:50.454Z,8.57
2023-03-20T10:31:20.953Z,8.95
2023-03-20T10:33:51.269Z,8.82
2023-03-20T10:36:24.471Z,8.85
2023-03-20T10:38:53.742Z,8.93
2023-03-20T10:41:22.234Z,6.70
2023-03-20T10:43:49.724Z,8.93
2023-03-20T10:46:17.575Z,7.60
2023-03-20T10:48:45.407Z,8.15
2023-03-20T10:51:14.533Z,8.48
2023-03-20T10:53:42.943Z,7.55
2023-03-20T10:56:13.101Z,7.50
2023-03-20T10:58:41.511Z,7.20
2023-03-20T11:01:08.830Z,7.30
2023-03-20T11:03:39.588Z,7.47
2023-03-20T11:06:10.508Z,6.85
2023-03-20T11:08:38.415Z,6.40
2023-03-20T11:11:06.144Z,6.88
2023-03-20T11:13:35.064Z,6.40
2023-03-20T11:16:09.835Z,5.95
2023-03-20T11:18:37.130Z,6.40
2023-03-20T11:21:04.422Z,5.72
2023-03-20T11:23:33.492Z,5.68
2023-03-20T11:26:01.075Z,6.40
2023-03-20T11:28:31.338Z,5.63
2023-03-20T11:31:05.202Z,5.63
2023-03-20T11:33:33.137Z,5.57
2023-03-20T11:36:00.374Z,5.63
2023-03-20T11:38:27.578Z,4.90
2023-03-20T11:40:54.772Z,5.07
2023-03-20T11:43:22.566Z,5.20
2023-03-20T11:45:50.229Z,5.10
2023-03-20T11:48:20.137Z,5.00
2023-03-20T11:50:47.994Z,4.60
2023-03-20T11:53:20.734Z,5.07
2023-03-20T11:55:57.235Z,4.90
2023-03-20T11:58:24.954Z,4.85
2023-03-20T12:00:52.150Z,4.20
2023-03-20T12:03:37.918Z,4.70
2023-03-20T12:06:08.550Z,4.50
2023-03-20T12:08:35.961Z,4.10
2023-03-20T12:11:04.333Z,4.13
2023-03-20T12:13:33.092Z,3.67
2023-03-20T12:16:00.650Z,4.03
2023-03-20T12:18:29.019Z,3.72
2023-03-20T12:20:59.210Z,3.35
2023-03-20T12:25:56.780Z,3.92
2023-03-20T12:28:24.962Z,3.75
2023-03-20T12:30:55.625Z,3.80
2023-03-20T12:33:25.149Z,3.67
2023-03-20T12:35:52.813Z,3.42
2023-03-20T12:38:22.641Z,3.30
2023-03-20T12:40:49.851Z,3.47
2023-03-20T12:45:43.402Z,2.75
2023-03-20T12:48:22.413Z,3.05
2023-03-20T12:50:50.455Z,3.00
2023-03-20T12:53:23.899Z,3.25
2023-03-20T12:55:53.645Z,3.17
2023-03-20T12:58:24.329Z,2.80
2023-03-20T13:00:54.603Z,2.72
2023-03-20T13:03:36.084Z,2.60
2023-03-20T13:06:04.262Z,2.58
2023-03-20T13:08:40.776Z,2.95
2023-03-20T13:11:11.215Z,2.50
2023-03-20T13:13:39.900Z,2.92
2023-03-20T13:16:11.033Z,2.70
2023-03-20T13:18:41.987Z,3.00
2023-03-20T13:21:10.530Z,4.97
2023-03-20T13:23:38.564Z,4.93
2023-03-20T13:26:11.513Z,4.55
2023-03-20T13:28:40.863Z,3.97
2023-03-20T13:31:14.306Z,4.32
2023-03-20T13:33:44.241Z,4.07
2023-03-20T13:36:13.330Z,3.55
2023-03-20T13:38:41.548Z,3.28
2023-03-20T13:41:09.806Z,3.13
2023-03-20T13:43:37.110Z,3.30
2023-03-20T13:46:07.619Z,3.22
2023-03-20T13:48:36.495Z,2.80
2023-03-20T13:51:09.306Z,2.50
2023-03-20T13:53:39.313Z,3.00
2023-03-20T13:56:08.645Z,2.30
2023-03-20T13:58:45.492Z,2.75
2023-03-20T14:01:13.431Z,2.58
2023-03-20T14:03:44.466Z,2.58
2023-03-20T14:06:19.022Z,2.35
2023-03-20T14:08:48.509Z,2.28
2023-03-20T14:11:16.626Z,2.17
2023-03-20T14:13:45.011Z,2.65
2023-03-20T14:16:12.730Z,2.58
2023-03-20T14:18:40.164Z,2.53
2023-03-20T14:21:11.995Z,2.30
2023-03-20T14:23:39.613Z,2.25
2023-03-20T14:26:08.415Z,2.40
2023-03-20T14:28:44.331Z,2.72
2023-03-20T14:31:21.840Z,2.53
2023-03-20T14:33:53.837Z,2.85
2023-03-20T14:36:22.698Z,2.80
2023-03-20T14:38:54.394Z,2.30
2023-03-20T14:41:23.725Z,2.90
2023-03-20T14:43:58.558Z,2.80
2023-03-20T14:46:27.336Z,2.53
2023-03-20T14:48:54.902Z,2.28
2023-03-20T14:51:25.324Z,2.03
2023-03-20T14:53:56.741Z,2.13
2023-03-20T14:56:28.591Z,2.50
2023-03-20T14:58:56.723Z,2.30
2023-03-20T15:01:28.050Z,2.38
2023-03-20T15:03:57.236Z,2.67
2023-03-20T15:06:25.935Z,2.30
2023-03-20T15:08:54.066Z,2.45
2023-03-20T15:11:21.268Z,1.92
2023-03-20T15:13:48.530Z,2.30
2023-03-20T15:16:15.845Z,2.20
2023-03-20T15:18:43.557Z,2.10
2023-03-20T15:21:14.272Z,2.25
2023-03-20T15:23:45.919Z,2.05
2023-03-20T15:26:15.970Z,1.98
2023-03-20T15:28:43.425Z,2.25
2023-03-20T15:31:14.050Z,2.03
2023-03-20T15:33:41.859Z,2.10
2023-03-20T15:36:09.824Z,1.95
2023-03-20T15:38:37.054Z,2.10
2023-03-20T15:41:06.574Z,2.00
2023-03-20T15:43:35.079Z,2.30
2023-03-20T15:46:17.323Z,1.95
2023-03-20T15:48:48.116Z,1.83
2023-03-20T15:51:15.653Z,2.00
2023-03-20T15:53:44.582Z,1.70
2023-03-20T15:56:20.703Z,1.58
2023-03-20T15:58:48.223Z,1.75
2023-03-20T16:01:16.724Z,1.70
2023-03-20T16:03:43.926Z,1.70
2023-03-20T16:06:12.142Z,1.55
2023-03-20T16:08:39.418Z,1.70
2023-03-20T16:11:07.569Z,2.00
2023-03-20T16:13:38.881Z,1.67
2023-03-20T16:16:07.650Z,1.80
2023-03-20T16:18:36.637Z,1.52
2023-03-20T16:21:04.337Z,1.58
2023-03-20T16:23:33.197Z,1.77
2023-03-20T16:26:00.391Z,1.42
2023-03-20T16:28:27.923Z,1.40
2023-03-20T16:30:56.829Z,1.60
2023-03-20T16:33:24.024Z,1.42
2023-03-20T16:35:51.245Z,1.50
2023-03-20T16:38:23.597Z,1.30
2023-03-20T16:40:54.833Z,1.60
2023-03-20T16:43:23.734Z,1.70
2023-03-20T16:45:51.884Z,1.58
2023-03-20T16:48:26.585Z,1.50
2023-03-20T16:50:56.842Z,1.70
2023-03-20T16:53:24.849Z,1.55
2023-03-20T16:55:52.254Z,1.73
2023-03-20T16:58:20.708Z,1.48
2023-03-20T17:00:50.791Z,1.83
2023-03-20T17:05:48.335Z,1.58
2023-03-20T17:08:15.908Z,1.98
2023-03-20T17:10:46.372Z,1.38
2023-03-20T17:13:13.576Z,1.70
2023-03-20T17:15:41.038Z,1.45
2023-03-20T17:18:10.140Z,1.83
2023-03-20T17:20:37.596Z,2.10
2023-03-20T17:23:06.828Z,2.03
2023-03-20T17:25:34.021Z,1.77
2023-03-20T17:28:01.201Z,1.92
2023-03-20T17:30:28.386Z,2.00
2023-03-20T17:32:55.639Z,1.92
2023-03-20T17:35:22.860Z,1.90
2023-03-20T17:37:50.045Z,2.05
2023-03-20T17:40:21.741Z,2.22
2023-03-20T17:42:49.115Z,1.95
2023-03-20T17:45:18.609Z,2.13
2023-03-20T17:47:47.629Z,2.22
2023-03-20T17:50:17.785Z,2.03
2023-03-20T17:55:12.149Z,1.98
2023-03-20T17:57:40.664Z,2.20
2023-03-20T18:00:08.628Z,2.10
2023-03-20T18:02:35.817Z,2.33
2023-03-20T18:05:03.018Z,2.28
2023-03-20T18:07:30.362Z,2.30
2023-03-20T18:09:57.590Z,3.00
2023-03-20T18:12:24.822Z,2.85
2023-03-20T18:14:53.318Z,2.33
2023-03-20T18:17:20.520Z,2.60
2023-03-20T18:19:47.729Z,2.72
2023-03-20T18:22:15.325Z,2.30
2023-03-20T18:24:45.411Z,2.40
2023-03-20T18:27:12.798Z,2.10
2023-03-20T18:29:39.995Z,2.03
2023-03-20T18:32:09.126Z,2.38
2023-03-20T18:34:36.334Z,2.75
2023-03-20T18:37:07.298Z,2.25
2023-03-20T18:39:34.476Z,2.22
2023-03-20T18:42:01.793Z,2.22
2023-03-20T18:44:28.996Z,2.67
2023-03-20T18:46:56.612Z,2.28
2023-03-20T18:49:25.159Z,2.30
2023-03-20T18:51:53.965Z,2.30
2023-03-20T18:54:21.212Z,2.10
2023-03-20T18:56:49.670Z,2.28
2023-03-20T18:59:16.891Z,2.58
2023-03-20T19:01:44.154Z,2.50
2023-03-20T19:04:11.472Z,2.35
2023-03-20T19:06:40.017Z,2.33
2023-03-20T19:09:07.262Z,2.42
2023-03-20T19:11:34.447Z,2.30
2023-03-20T19:14:01.628Z,2.20
2023-03-20T19:16:29.386Z,2.53
2023-03-20T19:18:58.435Z,2.10
2023-03-20T19:21:26.233Z,2.67
2023-03-20T19:23:55.345Z,2.20
2023-03-20T19:26:24.341Z,2.30
2023-03-20T19:28:51.523Z,2.40
2023-03-20T19:31:18.746Z,2.38
2023-03-20T19:33:46.095Z,2.35
2023-03-20T19:36:19.740Z,2.67
2023-03-20T19:38:46.942Z,2.38
2023-03-20T19:41:15.736Z,2.33
2023-03-20T19:43:52.593Z,2.40
2023-03-20T19:46:38.107Z,2.85
2023-03-20T19:49:06.967Z,2.35
2023-03-20T19:51:34.271Z,2.50
2023-03-20T19:54:01.467Z,2.63
2023-03-20T19:56:29.973Z,2.42
2023-03-20T19:58:57.168Z,2.80
2023-03-20T20:01:25.563Z,2.40
2023-03-20T20:03:53.845Z,2.30
2023-03-20T20:06:22.379Z,1.98
2023-03-20T20:08:50.475Z,2.13
2023-03-20T20:11:17.835Z,2.47
2023-03-20T20:14:05.327Z,2.40
2023-03-20T20:16:33.850Z,2.10
2023-03-20T20:19:01.091Z,2.25
2023-03-20T20:22:13.321Z,2.25
2023-03-20T20:24:16.824Z,2.45
2023-03-20T20:26:53.846Z,2.33
2023-03-20T20:29:24.330Z,2.45
2023-03-20T20:31:51.624Z,2.30
2023-03-20T20:37:53.788Z,2.70
2023-03-20T20:39:53.840Z,2.70
2023-03-20T20:42:21.386Z,2.42
2023-03-20T20:44:49.888Z,2.40
2023-03-20T20:47:17.197Z,2.30
2023-03-20T20:49:46.187Z,2.38
2023-03-20T20:52:13.394Z,2.20
2023-03-20T20:54:41.853Z,2.45
2023-03-20T20:57:10.515Z,2.80
2023-03-20T20:59:38.422Z,2.50
2023-03-20T21:02:10.946Z,2.80
2023-03-20T21:04:38.695Z,3.28
2023-03-20T21:07:10.339Z,2.55
2023-03-20T21:09:38.349Z,2.60
2023-03-20T21:12:05.907Z,2.75
2023-03-20T21:14:33.080Z,2.45
2023-03-20T21:17:01.555Z,2.58
2023-03-20T21:19:30.760Z,2.65
2023-03-20T21:21:57.980Z,2.33
2023-03-20T21:24:34.290Z,2.75
2023-03-20T21:27:01.944Z,2.50
2023-03-20T21:29:29.147Z,2.75
2023-03-20T21:31:56.382Z,2.55
2023-03-20T21:34:23.679Z,2.20
2023-03-20T21:36:52.188Z,2.20
2023-03-20T21:39:19.481Z,2.50
2023-03-20T21:41:46.991Z,2.80
2023-03-20T21:44:18.189Z,2.83
2023-03-20T21:47:55.811Z,2.95
2023-03-20T21:53:05.934Z,2.75
2023-03-20T22:09:54.722Z,2.88
2023-03-20T22:12:43.816Z,2.90
2023-03-20T22:15:33.948Z,3.03
2023-03-20T22:18:06.012Z,3.30
2023-03-20T22:26:56.598Z,3.17
2023-03-20T22:32:20.948Z,3.05
2023-03-20T22:37:46.538Z,3.15
2023-03-20T22:43:05.870Z,3.13
2023-03-20T22:45:37.633Z,3.15
2023-03-20T22:48:12.332Z,3.00
2023-03-20T22:50:40.135Z,3.35
2023-03-20T22:53:07.359Z,2.90
2023-03-20T22:55:34.554Z,2.70
2023-03-20T22:58:07.913Z,3.13
2023-03-20T23:00:35.752Z,3.38
2023-03-20T23:03:17.167Z,3.20
2023-03-20T23:05:49.798Z,3.20
2023-03-20T23:08:16.989Z,2.88
2023-03-20T23:10:44.514Z,3.40
2023-03-20T23:13:13.253Z,3.08
2023-03-20T23:15:41.318Z,3.00
2023-03-20T23:18:09.408Z,2.70
2023-03-20T23:20:36.768Z,3.55
2023-03-20T23:23:04.272Z,2.80
2023-03-20T23:25:39.262Z,3.08
2023-03-20T23:28:07.484Z,3.10
2023-03-20T23:31:03.398Z,3.25
2023-03-20T23:33:23.521Z,2.78
2023-03-20T23:36:01.134Z,2.78
2023-03-20T23:38:32.304Z,3.25
2023-03-20T23:40:59.483Z,2.97
2023-03-20T23:43:26.718Z,2.70
2023-03-20T23:45:55.223Z,3.20
2023-03-20T23:48:22.486Z,2.85
2023-03-20T23:50:53.279Z,3.05
2023-03-20T23:53:21.405Z,2.72
2023-03-20T23:55:48.838Z,3.30
2023-03-20T23:58:16.175Z,3.30
